Colorado Springs, Colorado
Current Conditions -  °F | °C
As of 5:54 PM on Wednesday 17 Dec 2014 (Local Time) from KCOS Reporting Station
Overcast Overcast  
Wind Chill: 27°   Ceiling: 7000
Heat Index: 34°   Visibility: 7mi
Dew Point: 32°   Wind: 8mph
Humidity: 92%   Direction: 300°WNW
Pressure: 29.93"   Gusts: NA
Location:  38.83°N, 104.82°W
Report Text: KCOS 180054Z 30007KT 7SM FEW015 FEW034 BKN070 OVC230 01/00 A2993 RMK AO2 SLP166 T00110000
Loading
Personal Weather Stations






























Interactive Weather Map New forecast layout! Learn more

10-Day Weather Forecast

Advertisements
Track Severe Weather on mobile